Ingleside, Maryland
Current Conditions -  °F | °C
As of 11:13 PM on Tuesday 21 Oct 2014 (Local Time) from KDOV Reporting Station
Light Rain Light Rain  
Wind Chill: 55°   Ceiling: 5500
Heat Index: 55°   Visibility: 10mi
Dew Point: 52°   Wind: 2mph
Humidity: 88%   Direction: 310°NW
Pressure: 29.84"   Gusts: NA
Location:  39.09°N, 75.88°W
Report Text: KDOV 220313Z AUTO 31002KT 10SM -RA BKN055 13/11 A2984 RMK AO2 LTG DSNT S
Loading
Personal Weather Stations






























Interactive Weather Map
Tropical Storm Tracking
New forecast layout! Learn more

10-Day Weather Forecast

Advertisements
Track Severe Weather on mobile